sensor_id;sensor_type;location;lat;lon;timestamp;P1;durP1;ratioP1;P2;durP2;ratioP2
57341;SDS011;43175;51.002;18.316;2023-05-29T00:01:44;16.40;;;5.80;;
57341;SDS011;43175;51.002;18.316;2023-05-29T00:04:09;13.00;;;5.40;;
57341;SDS011;43175;51.002;18.316;2023-05-29T00:06:35;15.30;;;6.00;;
57341;SDS011;43175;51.002;18.316;2023-05-29T00:09:01;13.90;;;5.60;;
57341;SDS011;43175;51.002;18.316;2023-05-29T00:11:26;16.10;;;6.10;;
57341;SDS011;43175;51.002;18.316;2023-05-29T00:13:52;13.60;;;5.90;;
57341;SDS011;43175;51.002;18.316;2023-05-29T00:16:17;12.70;;;5.40;;
57341;SDS011;43175;51.002;18.316;2023-05-29T00:18:43;13.90;;;5.50;;
57341;SDS011;43175;51.002;18.316;2023-05-29T00:21:13;13.80;;;5.30;;
57341;SDS011;43175;51.002;18.316;2023-05-29T00:23:39;12.50;;;5.60;;
57341;SDS011;43175;51.002;18.316;2023-05-29T00:26:05;13.40;;;5.60;;
57341;SDS011;43175;51.002;18.316;2023-05-29T00:28:31;13.60;;;5.40;;
57341;SDS011;43175;51.002;18.316;2023-05-29T00:30:56;13.70;;;5.60;;
57341;SDS011;43175;51.002;18.316;2023-05-29T00:33:22;14.10;;;5.50;;
57341;SDS011;43175;51.002;18.316;2023-05-29T00:35:47;15.30;;;5.90;;
57341;SDS011;43175;51.002;18.316;2023-05-29T00:38:12;13.50;;;5.60;;
57341;SDS011;43175;51.002;18.316;2023-05-29T00:40:39;13.30;;;5.80;;
57341;SDS011;43175;51.002;18.316;2023-05-29T00:43:05;14.60;;;5.10;;
57341;SDS011;43175;51.002;18.316;2023-05-29T00:45:30;15.30;;;5.80;;
57341;SDS011;43175;51.002;18.316;2023-05-29T00:47:57;14.70;;;5.90;;
57341;SDS011;43175;51.002;18.316;2023-05-29T00:50:23;16.10;;;6.20;;
57341;SDS011;43175;51.002;18.316;2023-05-29T00:52:49;16.40;;;6.00;;
57341;SDS011;43175;51.002;18.316;2023-05-29T00:55:15;14.60;;;5.90;;
57341;SDS011;43175;51.002;18.316;2023-05-29T00:57:41;14.10;;;5.70;;
57341;SDS011;43175;51.002;18.316;2023-05-29T01:00:06;15.10;;;6.10;;
57341;SDS011;43175;51.002;18.316;2023-05-29T01:02:42;14.30;;;5.80;;
57341;SDS011;43175;51.002;18.316;2023-05-29T01:05:13;14.30;;;6.20;;
57341;SDS011;43175;51.002;18.316;2023-05-29T01:07:40;15.30;;;6.00;;
57341;SDS011;43175;51.002;18.316;2023-05-29T01:10:06;14.00;;;5.60;;
57341;SDS011;43175;51.002;18.316;2023-05-29T01:29:07;15.20;;;6.70;;
57341;SDS011;43175;51.002;18.316;2023-05-29T01:31:33;18.20;;;7.10;;
57341;SDS011;43175;51.002;18.316;2023-05-29T01:34:00;16.80;;;6.80;;
57341;SDS011;43175;51.002;18.316;2023-05-29T01:36:27;16.20;;;6.80;;
57341;SDS011;43175;51.002;18.316;2023-05-29T01:38:53;17.00;;;7.70;;
57341;SDS011;43175;51.002;18.316;2023-05-29T01:41:20;16.90;;;7.20;;
57341;SDS011;43175;51.002;18.316;2023-05-29T01:43:47;18.00;;;7.20;;
57341;SDS011;43175;51.002;18.316;2023-05-29T01:46:13;16.80;;;7.80;;
57341;SDS011;43175;51.002;18.316;2023-05-29T01:48:40;17.20;;;7.50;;
57341;SDS011;43175;51.002;18.316;2023-05-29T01:51:07;15.70;;;7.70;;
57341;SDS011;43175;51.002;18.316;2023-05-29T01:53:33;15.10;;;7.70;;
57341;SDS011;43175;51.002;18.316;2023-05-29T01:55:58;16.60;;;7.50;;
57341;SDS011;43175;51.002;18.316;2023-05-29T01:58:24;16.40;;;7.50;;
57341;SDS011;43175;51.002;18.316;2023-05-29T02:00:50;17.70;;;7.60;;
57341;SDS011;43175;51.002;18.316;2023-05-29T02:03:15;16.60;;;7.70;;
57341;SDS011;43175;51.002;18.316;2023-05-29T02:05:41;18.30;;;7.50;;
57341;SDS011;43175;51.002;18.316;2023-05-29T02:08:06;16.30;;;7.30;;
57341;SDS011;43175;51.002;18.316;2023-05-29T02:10:32;14.90;;;7.20;;
57341;SDS011;43175;51.002;18.316;2023-05-29T02:12:58;16.50;;;7.30;;
57341;SDS011;43175;51.002;18.316;2023-05-29T02:15:23;15.80;;;7.30;;
57341;SDS011;43175;51.002;18.316;2023-05-29T02:17:48;16.60;;;7.30;;
57341;SDS011;43175;51.002;18.316;2023-05-29T02:20:15;15.80;;;7.50;;
57341;SDS011;43175;51.002;18.316;2023-05-29T02:22:41;17.20;;;7.40;;
57341;SDS011;43175;51.002;18.316;2023-05-29T02:25:06;17.00;;;7.60;;
57341;SDS011;43175;51.002;18.316;2023-05-29T02:27:33;16.10;;;7.80;;
57341;SDS011;43175;51.002;18.316;2023-05-29T02:29:58;16.40;;;7.70;;
57341;SDS011;43175;51.002;18.316;2023-05-29T02:32:24;15.40;;;7.00;;
57341;SDS011;43175;51.002;18.316;2023-05-29T02:34:51;16.60;;;7.70;;
57341;SDS011;43175;51.002;18.316;2023-05-29T02:37:17;16.10;;;7.70;;
57341;SDS011;43175;51.002;18.316;2023-05-29T02:39:43;20.40;;;8.30;;
57341;SDS011;43175;51.002;18.316;2023-05-29T02:42:08;16.70;;;7.80;;
57341;SDS011;43175;51.002;18.316;2023-05-29T02:44:34;16.50;;;7.60;;
57341;SDS011;43175;51.002;18.316;2023-05-29T02:46:59;17.50;;;7.10;;
57341;SDS011;43175;51.002;18.316;2023-05-29T02:49:25;15.90;;;7.20;;
57341;SDS011;43175;51.002;18.316;2023-05-29T02:51:51;16.90;;;7.40;;
57341;SDS011;43175;51.002;18.316;2023-05-29T02:54:21;16.80;;;7.10;;
57341;SDS011;43175;51.002;18.316;2023-05-29T02:56:50;15.80;;;7.20;;
57341;SDS011;43175;51.002;18.316;2023-05-29T02:59:17;16.20;;;7.00;;
57341;SDS011;43175;51.002;18.316;2023-05-29T03:01:42;15.90;;;6.90;;
57341;SDS011;43175;51.002;18.316;2023-05-29T03:04:08;16.10;;;7.50;;
57341;SDS011;43175;51.002;18.316;2023-05-29T03:06:35;16.30;;;7.10;;
57341;SDS011;43175;51.002;18.316;2023-05-29T03:09:02;14.60;;;7.20;;
57341;SDS011;43175;51.002;18.316;2023-05-29T03:11:28;16.80;;;7.50;;
57341;SDS011;43175;51.002;18.316;2023-05-29T03:13:54;16.50;;;7.20;;
57341;SDS011;43175;51.002;18.316;2023-05-29T03:16:20;16.10;;;7.10;;
57341;SDS011;43175;51.002;18.316;2023-05-29T03:18:46;17.20;;;7.30;;
57341;SDS011;43175;51.002;18.316;2023-05-29T03:21:12;15.40;;;6.90;;
57341;SDS011;43175;51.002;18.316;2023-05-29T03:23:38;14.40;;;6.60;;
57341;SDS011;43175;51.002;18.316;2023-05-29T03:26:03;19.00;;;6.70;;
57341;SDS011;43175;51.002;18.316;2023-05-29T03:28:29;17.60;;;6.80;;
57341;SDS011;43175;51.002;18.316;2023-05-29T03:30:54;15.60;;;6.40;;
57341;SDS011;43175;51.002;18.316;2023-05-29T03:33:20;13.30;;;6.20;;
57341;SDS011;43175;51.002;18.316;2023-05-29T03:35:45;15.10;;;6.30;;
57341;SDS011;43175;51.002;18.316;2023-05-29T03:38:11;15.00;;;6.00;;
57341;SDS011;43175;51.002;18.316;2023-05-29T03:40:37;13.50;;;5.90;;
57341;SDS011;43175;51.002;18.316;2023-05-29T03:43:02;17.10;;;6.70;;
57341;SDS011;43175;51.002;18.316;2023-05-29T03:45:28;13.10;;;6.20;;
57341;SDS011;43175;51.002;18.316;2023-05-29T03:47:53;13.00;;;6.10;;
57341;SDS011;43175;51.002;18.316;2023-05-29T03:50:19;13.10;;;5.50;;
57341;SDS011;43175;51.002;18.316;2023-05-29T03:52:45;13.10;;;5.60;;
57341;SDS011;43175;51.002;18.316;2023-05-29T03:55:10;14.40;;;5.30;;
57341;SDS011;43175;51.002;18.316;2023-05-29T03:57:39;14.30;;;5.40;;
57341;SDS011;43175;51.002;18.316;2023-05-29T04:00:09;12.10;;;5.00;;
57341;SDS011;43175;51.002;18.316;2023-05-29T04:02:55;13.90;;;5.60;;
57341;SDS011;43175;51.002;18.316;2023-05-29T04:05:21;13.00;;;5.60;;
57341;SDS011;43175;51.002;18.316;2023-05-29T04:07:46;14.20;;;5.60;;
57341;SDS011;43175;51.002;18.316;2023-05-29T04:10:12;13.40;;;5.80;;
57341;SDS011;43175;51.002;18.316;2023-05-29T04:12:37;12.90;;;5.40;;
57341;SDS011;43175;51.002;18.316;2023-05-29T04:15:03;12.50;;;5.10;;
57341;SDS011;43175;51.002;18.316;2023-05-29T04:17:29;13.30;;;5.20;;
57341;SDS011;43175;51.002;18.316;2023-05-29T04:19:55;11.40;;;5.00;;
57341;SDS011;43175;51.002;18.316;2023-05-29T04:22:20;13.20;;;5.30;;
57341;SDS011;43175;51.002;18.316;2023-05-29T04:24:46;13.60;;;5.10;;
57341;SDS011;43175;51.002;18.316;2023-05-29T04:27:11;12.50;;;5.20;;
57341;SDS011;43175;51.002;18.316;2023-05-29T04:29:38;13.40;;;5.20;;
57341;SDS011;43175;51.002;18.316;2023-05-29T04:32:07;12.80;;;5.20;;
57341;SDS011;43175;51.002;18.316;2023-05-29T04:34:35;12.00;;;4.80;;
57341;SDS011;43175;51.002;18.316;2023-05-29T04:37:01;12.40;;;4.90;;
57341;SDS011;43175;51.002;18.316;2023-05-29T04:39:28;12.70;;;5.00;;
57341;SDS011;43175;51.002;18.316;2023-05-29T04:41:54;14.20;;;5.10;;
57341;SDS011;43175;51.002;18.316;2023-05-29T04:44:19;15.00;;;5.10;;
57341;SDS011;43175;51.002;18.316;2023-05-29T04:46:45;12.80;;;5.20;;
57341;SDS011;43175;51.002;18.316;2023-05-29T04:49:12;13.30;;;5.30;;
57341;SDS011;43175;51.002;18.316;2023-05-29T04:51:40;14.20;;;5.50;;
57341;SDS011;43175;51.002;18.316;2023-05-29T04:54:06;12.90;;;5.30;;
57341;SDS011;43175;51.002;18.316;2023-05-29T04:56:34;13.40;;;5.60;;
57341;SDS011;43175;51.002;18.316;2023-05-29T04:58:59;15.60;;;5.60;;
57341;SDS011;43175;51.002;18.316;2023-05-29T05:01:25;12.20;;;5.00;;
57341;SDS011;43175;51.002;18.316;2023-05-29T05:03:51;14.90;;;5.20;;
57341;SDS011;43175;51.002;18.316;2023-05-29T05:06:23;14.60;;;5.70;;
57341;SDS011;43175;51.002;18.316;2023-05-29T05:08:53;16.80;;;6.30;;
57341;SDS011;43175;51.002;18.316;2023-05-29T05:11:21;13.50;;;5.80;;
57341;SDS011;43175;51.002;18.316;2023-05-29T05:13:47;12.80;;;5.40;;
57341;SDS011;43175;51.002;18.316;2023-05-29T05:16:13;13.80;;;5.40;;
57341;SDS011;43175;51.002;18.316;2023-05-29T05:18:39;13.20;;;5.20;;
57341;SDS011;43175;51.002;18.316;2023-05-29T05:21:04;14.30;;;4.90;;
57341;SDS011;43175;51.002;18.316;2023-05-29T05:23:31;13.00;;;5.70;;
57341;SDS011;43175;51.002;18.316;2023-05-29T05:25:56;12.40;;;5.10;;
57341;SDS011;43175;51.002;18.316;2023-05-29T05:28:22;16.80;;;5.40;;
57341;SDS011;43175;51.002;18.316;2023-05-29T05:30:47;13.30;;;5.10;;
57341;SDS011;43175;51.002;18.316;2023-05-29T05:33:13;14.20;;;5.10;;
57341;SDS011;43175;51.002;18.316;2023-05-29T05:35:38;13.20;;;5.60;;
57341;SDS011;43175;51.002;18.316;2023-05-29T05:38:04;14.20;;;4.90;;
57341;SDS011;43175;51.002;18.316;2023-05-29T05:40:29;12.80;;;4.90;;
57341;SDS011;43175;51.002;18.316;2023-05-29T05:42:55;11.10;;;4.30;;
57341;SDS011;43175;51.002;18.316;2023-05-29T05:45:21;10.70;;;3.70;;
57341;SDS011;43175;51.002;18.316;2023-05-29T05:47:46;13.90;;;4.70;;
57341;SDS011;43175;51.002;18.316;2023-05-29T05:50:12;11.90;;;4.70;;
57341;SDS011;43175;51.002;18.316;2023-05-29T05:52:38;12.20;;;4.50;;
57341;SDS011;43175;51.002;18.316;2023-05-29T05:55:03;13.40;;;4.70;;
57341;SDS011;43175;51.002;18.316;2023-05-29T05:57:29;12.70;;;4.80;;
57341;SDS011;43175;51.002;18.316;2023-05-29T05:59:57;11.60;;;4.20;;
57341;SDS011;43175;51.002;18.316;2023-05-29T06:02:23;11.40;;;4.60;;
57341;SDS011;43175;51.002;18.316;2023-05-29T06:04:49;11.80;;;4.60;;
57341;SDS011;43175;51.002;18.316;2023-05-29T06:07:15;10.50;;;4.00;;
57341;SDS011;43175;51.002;18.316;2023-05-29T06:09:40;11.40;;;4.00;;
57341;SDS011;43175;51.002;18.316;2023-05-29T06:12:07;13.10;;;4.10;;
57341;SDS011;43175;51.002;18.316;2023-05-29T06:14:34;11.50;;;4.00;;
57341;SDS011;43175;51.002;18.316;2023-05-29T06:16:59;10.50;;;4.20;;
57341;SDS011;43175;51.002;18.316;2023-05-29T06:19:25;11.50;;;3.90;;
57341;SDS011;43175;51.002;18.316;2023-05-29T06:21:51;11.60;;;3.80;;
57341;SDS011;43175;51.002;18.316;2023-05-29T06:24:16;10.30;;;3.90;;
57341;SDS011;43175;51.002;18.316;2023-05-29T06:26:41;10.80;;;3.80;;
57341;SDS011;43175;51.002;18.316;2023-05-29T06:29:07;10.10;;;4.20;;
57341;SDS011;43175;51.002;18.316;2023-05-29T06:31:32;11.90;;;3.80;;
57341;SDS011;43175;51.002;18.316;2023-05-29T06:33:59;10.90;;;3.50;;
57341;SDS011;43175;51.002;18.316;2023-05-29T06:36:24;9.60;;;3.30;;
57341;SDS011;43175;51.002;18.316;2023-05-29T06:38:50;11.00;;;3.50;;
57341;SDS011;43175;51.002;18.316;2023-05-29T06:41:16;10.50;;;3.80;;
57341;SDS011;43175;51.002;18.316;2023-05-29T06:43:42;15.50;;;4.20;;
57341;SDS011;43175;51.002;18.316;2023-05-29T06:46:07;12.30;;;3.40;;
57341;SDS011;43175;51.002;18.316;2023-05-29T06:48:33;11.30;;;3.60;;
57341;SDS011;43175;51.002;18.316;2023-05-29T06:51:00;11.50;;;3.60;;
57341;SDS011;43175;51.002;18.316;2023-05-29T06:53:25;10.70;;;3.30;;
57341;SDS011;43175;51.002;18.316;2023-05-29T06:55:52;11.10;;;3.90;;
57341;SDS011;43175;51.002;18.316;2023-05-29T06:58:17;14.10;;;4.20;;
57341;SDS011;43175;51.002;18.316;2023-05-29T07:00:43;10.40;;;3.60;;
57341;SDS011;43175;51.002;18.316;2023-05-29T07:03:09;11.60;;;3.50;;
57341;SDS011;43175;51.002;18.316;2023-05-29T07:05:34;12.30;;;4.00;;
57341;SDS011;43175;51.002;18.316;2023-05-29T07:08:00;11.00;;;3.60;;
57341;SDS011;43175;51.002;18.316;2023-05-29T07:10:25;10.80;;;3.70;;
57341;SDS011;43175;51.002;18.316;2023-05-29T07:12:51;9.20;;;3.50;;
57341;SDS011;43175;51.002;18.316;2023-05-29T07:15:16;10.20;;;3.90;;
57341;SDS011;43175;51.002;18.316;2023-05-29T07:17:42;12.50;;;3.70;;
57341;SDS011;43175;51.002;18.316;2023-05-29T07:20:07;11.30;;;3.60;;
57341;SDS011;43175;51.002;18.316;2023-05-29T07:22:34;10.90;;;3.70;;
57341;SDS011;43175;51.002;18.316;2023-05-29T07:25:00;13.90;;;3.80;;
57341;SDS011;43175;51.002;18.316;2023-05-29T07:27:26;10.10;;;3.60;;
57341;SDS011;43175;51.002;18.316;2023-05-29T07:29:52;10.10;;;3.80;;
57341;SDS011;43175;51.002;18.316;2023-05-29T07:32:17;11.30;;;4.00;;
57341;SDS011;43175;51.002;18.316;2023-05-29T07:34:42;11.60;;;3.70;;
57341;SDS011;43175;51.002;18.316;2023-05-29T07:37:08;10.20;;;3.90;;
57341;SDS011;43175;51.002;18.316;2023-05-29T07:39:34;10.40;;;3.60;;
57341;SDS011;43175;51.002;18.316;2023-05-29T07:42:01;11.40;;;3.80;;
57341;SDS011;43175;51.002;18.316;2023-05-29T07:44:27;12.30;;;3.80;;
57341;SDS011;43175;51.002;18.316;2023-05-29T07:46:53;11.80;;;3.70;;
57341;SDS011;43175;51.002;18.316;2023-05-29T07:49:19;11.90;;;3.50;;
57341;SDS011;43175;51.002;18.316;2023-05-29T07:51:45;10.20;;;3.20;;
57341;SDS011;43175;51.002;18.316;2023-05-29T07:54:11;10.10;;;3.40;;
57341;SDS011;43175;51.002;18.316;2023-05-29T07:56:36;11.60;;;3.10;;
57341;SDS011;43175;51.002;18.316;2023-05-29T07:59:02;9.80;;;2.90;;
57341;SDS011;43175;51.002;18.316;2023-05-29T08:01:28;9.00;;;3.20;;
57341;SDS011;43175;51.002;18.316;2023-05-29T08:03:54;10.30;;;3.10;;
57341;SDS011;43175;51.002;18.316;2023-05-29T08:06:20;8.80;;;2.90;;
57341;SDS011;43175;51.002;18.316;2023-05-29T08:08:46;11.90;;;3.00;;
57341;SDS011;43175;51.002;18.316;2023-05-29T08:11:11;10.30;;;3.20;;
57341;SDS011;43175;51.002;18.316;2023-05-29T08:13:37;11.10;;;3.00;;
57341;SDS011;43175;51.002;18.316;2023-05-29T08:16:03;10.90;;;3.00;;
57341;SDS011;43175;51.002;18.316;2023-05-29T08:18:30;10.60;;;3.00;;
57341;SDS011;43175;51.002;18.316;2023-05-29T08:20:56;11.00;;;3.20;;
57341;SDS011;43175;51.002;18.316;2023-05-29T08:23:22;12.50;;;3.00;;
57341;SDS011;43175;51.002;18.316;2023-05-29T08:25:47;9.70;;;3.40;;
57341;SDS011;43175;51.002;18.316;2023-05-29T08:28:14;9.50;;;3.30;;
57341;SDS011;43175;51.002;18.316;2023-05-29T08:30:39;10.50;;;3.40;;
57341;SDS011;43175;51.002;18.316;2023-05-29T08:33:05;10.90;;;3.10;;
57341;SDS011;43175;51.002;18.316;2023-05-29T08:35:32;10.60;;;3.00;;
57341;SDS011;43175;51.002;18.316;2023-05-29T08:37:58;13.00;;;3.50;;
57341;SDS011;43175;51.002;18.316;2023-05-29T08:40:24;11.20;;;3.20;;
57341;SDS011;43175;51.002;18.316;2023-05-29T08:45:43;13.80;;;3.40;;
57341;SDS011;43175;51.002;18.316;2023-05-29T08:48:09;11.40;;;3.10;;
57341;SDS011;43175;51.002;18.316;2023-05-29T08:50:43;11.20;;;3.00;;
57341;SDS011;43175;51.002;18.316;2023-05-29T08:53:12;10.40;;;3.30;;
57341;SDS011;43175;51.002;18.316;2023-05-29T08:55:39;10.30;;;3.20;;
57341;SDS011;43175;51.002;18.316;2023-05-29T08:58:05;8.70;;;3.00;;
57341;SDS011;43175;51.002;18.316;2023-05-29T09:00:30;9.40;;;3.10;;
57341;SDS011;43175;51.002;18.316;2023-05-29T09:02:57;10.50;;;3.30;;
57341;SDS011;43175;51.002;18.316;2023-05-29T09:05:24;10.40;;;3.10;;
57341;SDS011;43175;51.002;18.316;2023-05-29T09:07:53;10.00;;;2.80;;
57341;SDS011;43175;51.002;18.316;2023-05-29T09:10:19;11.20;;;3.10;;
57341;SDS011;43175;51.002;18.316;2023-05-29T09:12:46;10.20;;;3.00;;
57341;SDS011;43175;51.002;18.316;2023-05-29T09:15:18;9.00;;;2.90;;
57341;SDS011;43175;51.002;18.316;2023-05-29T09:17:49;11.00;;;3.10;;
57341;SDS011;43175;51.002;18.316;2023-05-29T09:20:18;12.10;;;3.20;;
57341;SDS011;43175;51.002;18.316;2023-05-29T09:22:55;11.10;;;3.30;;
57341;SDS011;43175;51.002;18.316;2023-05-29T09:25:29;10.40;;;3.20;;
57341;SDS011;43175;51.002;18.316;2023-05-29T09:27:58;9.50;;;3.20;;
57341;SDS011;43175;51.002;18.316;2023-05-29T09:30:38;9.40;;;2.90;;
57341;SDS011;43175;51.002;18.316;2023-05-29T09:33:05;9.00;;;3.10;;
57341;SDS011;43175;51.002;18.316;2023-05-29T09:35:38;11.00;;;3.00;;
57341;SDS011;43175;51.002;18.316;2023-05-29T09:38:05;10.90;;;3.00;;
57341;SDS011;43175;51.002;18.316;2023-05-29T09:40:35;9.30;;;2.90;;
57341;SDS011;43175;51.002;18.316;2023-05-29T09:43:03;11.00;;;3.00;;
57341;SDS011;43175;51.002;18.316;2023-05-29T09:45:33;10.10;;;3.00;;
57341;SDS011;43175;51.002;18.316;2023-05-29T09:48:00;11.80;;;3.40;;
57341;SDS011;43175;51.002;18.316;2023-05-29T09:50:26;11.20;;;3.50;;
57341;SDS011;43175;51.002;18.316;2023-05-29T09:52:53;10.40;;;3.00;;
57341;SDS011;43175;51.002;18.316;2023-05-29T09:55:25;10.30;;;3.00;;
57341;SDS011;43175;51.002;18.316;2023-05-29T09:57:53;10.40;;;3.00;;
57341;SDS011;43175;51.002;18.316;2023-05-29T10:00:20;10.30;;;3.10;;
57341;SDS011;43175;51.002;18.316;2023-05-29T10:02:50;9.50;;;3.20;;
57341;SDS011;43175;51.002;18.316;2023-05-29T10:05:15;10.60;;;3.30;;
57341;SDS011;43175;51.002;18.316;2023-05-29T10:07:45;10.00;;;3.10;;
57341;SDS011;43175;51.002;18.316;2023-05-29T10:10:14;16.40;;;3.10;;
57341;SDS011;43175;51.002;18.316;2023-05-29T10:12:48;11.00;;;3.40;;
57341;SDS011;43175;51.002;18.316;2023-05-29T10:15:14;11.20;;;3.30;;
57341;SDS011;43175;51.002;18.316;2023-05-29T10:17:48;11.30;;;3.20;;
57341;SDS011;43175;51.002;18.316;2023-05-29T10:20:17;10.50;;;3.20;;
57341;SDS011;43175;51.002;18.316;2023-05-29T10:22:45;11.40;;;3.10;;
57341;SDS011;43175;51.002;18.316;2023-05-29T10:25:13;8.80;;;2.90;;
57341;SDS011;43175;51.002;18.316;2023-05-29T10:27:41;10.30;;;2.80;;
57341;SDS011;43175;51.002;18.316;2023-05-29T10:30:13;8.90;;;3.10;;
57341;SDS011;43175;51.002;18.316;2023-05-29T10:35:37;9.80;;;3.00;;
57341;SDS011;43175;51.002;18.316;2023-05-29T10:38:11;9.20;;;3.00;;
57341;SDS011;43175;51.002;18.316;2023-05-29T10:40:39;9.70;;;3.30;;
57341;SDS011;43175;51.002;18.316;2023-05-29T10:43:04;9.50;;;2.90;;
57341;SDS011;43175;51.002;18.316;2023-05-29T10:50:44;8.60;;;2.90;;
57341;SDS011;43175;51.002;18.316;2023-05-29T10:53:14;9.00;;;2.90;;
57341;SDS011;43175;51.002;18.316;2023-05-29T10:55:44;9.20;;;2.80;;
57341;SDS011;43175;51.002;18.316;2023-05-29T10:58:15;10.40;;;3.10;;
57341;SDS011;43175;51.002;18.316;2023-05-29T11:00:43;10.90;;;3.10;;
57341;SDS011;43175;51.002;18.316;2023-05-29T11:03:14;10.60;;;3.10;;
57341;SDS011;43175;51.002;18.316;2023-05-29T11:08:43;9.40;;;2.90;;
57341;SDS011;43175;51.002;18.316;2023-05-29T11:11:28;9.60;;;3.10;;
57341;SDS011;43175;51.002;18.316;2023-05-29T11:13:56;10.60;;;3.10;;
57341;SDS011;43175;51.002;18.316;2023-05-29T11:18:51;11.00;;;3.10;;
57341;SDS011;43175;51.002;18.316;2023-05-29T11:24:24;10.70;;;3.10;;
57341;SDS011;43175;51.002;18.316;2023-05-29T11:26:51;9.80;;;3.00;;
57341;SDS011;43175;51.002;18.316;2023-05-29T11:29:22;9.30;;;3.00;;
57341;SDS011;43175;51.002;18.316;2023-05-29T11:32:04;11.00;;;3.00;;
57341;SDS011;43175;51.002;18.316;2023-05-29T11:34:31;9.10;;;3.10;;
57341;SDS011;43175;51.002;18.316;2023-05-29T11:36:58;9.00;;;3.10;;
57341;SDS011;43175;51.002;18.316;2023-05-29T11:39:27;10.10;;;3.10;;
57341;SDS011;43175;51.002;18.316;2023-05-29T11:41:53;9.30;;;2.90;;
57341;SDS011;43175;51.002;18.316;2023-05-29T11:44:20;9.20;;;3.20;;
57341;SDS011;43175;51.002;18.316;2023-05-29T11:46:45;10.30;;;3.40;;
57341;SDS011;43175;51.002;18.316;2023-05-29T11:49:12;8.60;;;3.00;;
57341;SDS011;43175;51.002;18.316;2023-05-29T11:51:37;9.70;;;3.20;;
57341;SDS011;43175;51.002;18.316;2023-05-29T11:54:07;10.90;;;3.10;;
57341;SDS011;43175;51.002;18.316;2023-05-29T11:56:33;10.60;;;3.00;;
57341;SDS011;43175;51.002;18.316;2023-05-29T11:58:59;8.30;;;2.90;;
57341;SDS011;43175;51.002;18.316;2023-05-29T12:01:25;9.90;;;3.10;;
57341;SDS011;43175;51.002;18.316;2023-05-29T12:03:52;12.20;;;3.10;;
57341;SDS011;43175;51.002;18.316;2023-05-29T12:06:34;9.70;;;3.00;;
57341;SDS011;43175;51.002;18.316;2023-05-29T12:09:02;9.50;;;3.10;;
57341;SDS011;43175;51.002;18.316;2023-05-29T12:11:29;9.70;;;3.00;;
57341;SDS011;43175;51.002;18.316;2023-05-29T12:13:58;12.10;;;3.00;;
57341;SDS011;43175;51.002;18.316;2023-05-29T12:18:53;9.80;;;3.10;;
57341;SDS011;43175;51.002;18.316;2023-05-29T12:21:19;10.60;;;3.00;;
57341;SDS011;43175;51.002;18.316;2023-05-29T12:23:46;9.90;;;3.10;;
57341;SDS011;43175;51.002;18.316;2023-05-29T12:26:12;9.40;;;2.90;;
57341;SDS011;43175;51.002;18.316;2023-05-29T12:28:44;10.90;;;3.20;;
57341;SDS011;43175;51.002;18.316;2023-05-29T12:31:10;11.60;;;3.10;;
57341;SDS011;43175;51.002;18.316;2023-05-29T12:33:40;10.40;;;3.10;;
57341;SDS011;43175;51.002;18.316;2023-05-29T12:36:08;11.30;;;3.40;;
57341;SDS011;43175;51.002;18.316;2023-05-29T12:38:45;10.00;;;3.10;;
57341;SDS011;43175;51.002;18.316;2023-05-29T12:41:22;8.90;;;2.90;;
57341;SDS011;43175;51.002;18.316;2023-05-29T12:43:48;9.60;;;3.20;;
57341;SDS011;43175;51.002;18.316;2023-05-29T12:46:13;8.90;;;3.30;;
57341;SDS011;43175;51.002;18.316;2023-05-29T12:48:39;14.20;;;3.40;;
57341;SDS011;43175;51.002;18.316;2023-05-29T12:51:05;10.00;;;3.20;;
57341;SDS011;43175;51.002;18.316;2023-05-29T12:53:33;8.70;;;3.30;;
57341;SDS011;43175;51.002;18.316;2023-05-29T12:55:59;9.50;;;2.90;;
57341;SDS011;43175;51.002;18.316;2023-05-29T12:58:24;10.00;;;3.10;;
57341;SDS011;43175;51.002;18.316;2023-05-29T13:00:52;9.70;;;3.20;;
57341;SDS011;43175;51.002;18.316;2023-05-29T13:03:21;10.30;;;3.30;;
57341;SDS011;43175;51.002;18.316;2023-05-29T13:05:51;11.20;;;3.10;;
57341;SDS011;43175;51.002;18.316;2023-05-29T13:08:18;10.50;;;3.40;;
57341;SDS011;43175;51.002;18.316;2023-05-29T13:10:44;9.70;;;3.10;;
57341;SDS011;43175;51.002;18.316;2023-05-29T13:13:10;8.20;;;2.90;;
57341;SDS011;43175;51.002;18.316;2023-05-29T13:15:37;9.90;;;3.40;;
57341;SDS011;43175;51.002;18.316;2023-05-29T13:18:03;10.70;;;4.00;;
57341;SDS011;43175;51.002;18.316;2023-05-29T13:20:29;10.20;;;3.50;;
57341;SDS011;43175;51.002;18.316;2023-05-29T13:22:55;9.40;;;3.20;;
57341;SDS011;43175;51.002;18.316;2023-05-29T13:25:20;9.00;;;3.20;;
57341;SDS011;43175;51.002;18.316;2023-05-29T13:27:47;10.30;;;3.40;;
57341;SDS011;43175;51.002;18.316;2023-05-29T13:30:13;9.70;;;3.20;;
57341;SDS011;43175;51.002;18.316;2023-05-29T13:32:40;10.10;;;3.30;;
57341;SDS011;43175;51.002;18.316;2023-05-29T13:35:07;9.60;;;3.30;;
57341;SDS011;43175;51.002;18.316;2023-05-29T13:37:33;10.70;;;3.20;;
57341;SDS011;43175;51.002;18.316;2023-05-29T13:40:01;11.10;;;3.20;;
57341;SDS011;43175;51.002;18.316;2023-05-29T13:42:29;10.90;;;3.20;;
57341;SDS011;43175;51.002;18.316;2023-05-29T13:44:54;11.70;;;3.50;;
57341;SDS011;43175;51.002;18.316;2023-05-29T13:47:20;12.00;;;3.00;;
57341;SDS011;43175;51.002;18.316;2023-05-29T13:49:46;11.30;;;3.30;;
57341;SDS011;43175;51.002;18.316;2023-05-29T13:52:11;9.00;;;3.10;;
57341;SDS011;43175;51.002;18.316;2023-05-29T13:54:37;10.20;;;3.10;;
57341;SDS011;43175;51.002;18.316;2023-05-29T13:57:02;10.90;;;3.30;;
57341;SDS011;43175;51.002;18.316;2023-05-29T13:59:31;11.60;;;3.60;;
57341;SDS011;43175;51.002;18.316;2023-05-29T14:01:58;12.00;;;3.30;;
57341;SDS011;43175;51.002;18.316;2023-05-29T14:04:24;10.70;;;3.40;;
57341;SDS011;43175;51.002;18.316;2023-05-29T14:06:50;10.30;;;3.20;;
57341;SDS011;43175;51.002;18.316;2023-05-29T14:09:16;12.60;;;3.20;;
57341;SDS011;43175;51.002;18.316;2023-05-29T14:11:42;14.20;;;3.20;;
57341;SDS011;43175;51.002;18.316;2023-05-29T14:14:07;9.00;;;3.40;;
57341;SDS011;43175;51.002;18.316;2023-05-29T14:16:33;8.60;;;3.30;;
57341;SDS011;43175;51.002;18.316;2023-05-29T14:18:59;9.40;;;3.20;;
57341;SDS011;43175;51.002;18.316;2023-05-29T14:21:25;12.60;;;3.40;;
57341;SDS011;43175;51.002;18.316;2023-05-29T14:23:51;8.80;;;3.10;;
57341;SDS011;43175;51.002;18.316;2023-05-29T14:26:16;9.70;;;3.40;;
57341;SDS011;43175;51.002;18.316;2023-05-29T14:28:42;9.20;;;3.20;;
57341;SDS011;43175;51.002;18.316;2023-05-29T14:31:08;10.50;;;3.10;;
57341;SDS011;43175;51.002;18.316;2023-05-29T14:33:33;12.10;;;3.30;;
57341;SDS011;43175;51.002;18.316;2023-05-29T14:35:59;10.80;;;3.60;;
57341;SDS011;43175;51.002;18.316;2023-05-29T14:38:24;10.10;;;3.20;;
57341;SDS011;43175;51.002;18.316;2023-05-29T14:40:51;10.50;;;3.10;;
57341;SDS011;43175;51.002;18.316;2023-05-29T14:43:17;10.30;;;3.30;;
57341;SDS011;43175;51.002;18.316;2023-05-29T14:45:43;9.90;;;3.30;;
57341;SDS011;43175;51.002;18.316;2023-05-29T14:48:08;9.70;;;3.00;;
57341;SDS011;43175;51.002;18.316;2023-05-29T14:50:36;10.20;;;3.20;;
57341;SDS011;43175;51.002;18.316;2023-05-29T14:53:02;8.80;;;3.10;;
57341;SDS011;43175;51.002;18.316;2023-05-29T14:55:28;10.00;;;3.50;;
57341;SDS011;43175;51.002;18.316;2023-05-29T14:57:53;10.00;;;3.20;;
57341;SDS011;43175;51.002;18.316;2023-05-29T15:00:19;10.40;;;3.20;;